createdAt,value
2018-06-30T00:00:23.898Z,65.11
2018-06-30T00:00:49.460Z,65.11
2018-06-30T00:01:15.015Z,65.2
2018-06-30T00:01:40.585Z,65.2
2018-06-30T00:02:06.147Z,65.01
2018-06-30T00:02:31.721Z,65.2
2018-06-30T00:02:57.297Z,65.11
2018-06-30T00:03:22.897Z,65.01
2018-06-30T00:03:48.469Z,65.11
2018-06-30T00:04:14.034Z,65.11
2018-06-30T00:04:39.629Z,65.2
2018-06-30T00:05:05.206Z,65.11
2018-06-30T00:05:30.765Z,65.01
2018-06-30T00:05:56.328Z,65.11
2018-06-30T00:06:21.903Z,65.11
2018-06-30T00:06:47.471Z,65.01
2018-06-30T00:07:13.047Z,65.2
2018-06-30T00:07:38.605Z,65.01
2018-06-30T00:08:04.172Z,65.01
2018-06-30T00:08:29.741Z,65.2
2018-06-30T00:09:38.535Z,64.53
2018-06-30T00:10:42.164Z,64.53
2018-06-30T00:11:07.741Z,65.11
2018-06-30T00:11:33.300Z,64.43
2018-06-30T00:11:58.868Z,64.34
2018-06-30T00:12:24.429Z,64.34
2018-06-30T00:12:49.977Z,64.43
2018-06-30T00:13:15.531Z,64.43
2018-06-30T00:13:41.101Z,64.34
2018-06-30T00:14:06.661Z,64.34
2018-06-30T00:14:32.225Z,64.34
2018-06-30T00:14:57.790Z,64.43
2018-06-30T00:15:23.372Z,64.53
2018-06-30T00:15:48.926Z,64.53
2018-06-30T00:16:14.489Z,64.43
2018-06-30T00:16:40.057Z,64.53
2018-06-30T00:17:05.642Z,64.43
2018-06-30T00:17:31.201Z,64.43
2018-06-30T00:17:56.786Z,64.43
2018-06-30T00:18:22.365Z,64.43
2018-06-30T00:18:47.929Z,64.53
2018-06-30T00:19:13.502Z,64.43
2018-06-30T00:19:39.083Z,64.34
2018-06-30T00:20:04.668Z,64.43
2018-06-30T00:20:30.243Z,64.43
2018-06-30T00:20:55.799Z,64.14
2018-06-30T00:21:21.369Z,64.53
2018-06-30T00:21:46.940Z,64.53
2018-06-30T00:22:12.493Z,64.34
2018-06-30T00:22:38.053Z,64.53
2018-06-30T00:23:03.611Z,64.43
2018-06-30T00:23:29.188Z,64.04
2018-06-30T00:23:54.752Z,64.43
2018-06-30T00:24:20.313Z,64.24
2018-06-30T00:24:45.923Z,64.43
2018-06-30T00:25:11.491Z,64.04
2018-06-30T00:25:37.069Z,64.04
2018-06-30T00:26:02.634Z,64.04
2018-06-30T00:26:28.196Z,64.24
2018-06-30T00:26:53.770Z,64.14
2018-06-30T00:27:19.375Z,64.34
2018-06-30T00:27:44.917Z,64.43
2018-06-30T00:28:10.484Z,64.34
2018-06-30T00:28:36.059Z,64.24
2018-06-30T00:29:01.655Z,64.34
2018-06-30T00:29:27.231Z,64.43
2018-06-30T00:29:52.792Z,64.34
2018-06-30T00:30:18.354Z,64.31
2018-06-30T00:30:43.932Z,64.24
2018-06-30T00:31:09.489Z,64.34
2018-06-30T00:31:35.066Z,64.43
2018-06-30T00:32:00.635Z,64.34
2018-06-30T00:32:26.204Z,64.34
2018-06-30T00:32:51.779Z,64.34
2018-06-30T00:33:17.367Z,64.24
2018-06-30T00:33:42.943Z,64.24
2018-06-30T00:34:08.496Z,64.24
2018-06-30T00:34:34.067Z,64.24
2018-06-30T00:34:59.623Z,64.24
2018-06-30T00:35:25.183Z,64.53
2018-06-30T00:35:50.776Z,64.24
2018-06-30T00:36:16.329Z,64.53
2018-06-30T00:36:41.909Z,64.24
2018-06-30T00:37:07.477Z,64.43
2018-06-30T00:37:33.051Z,64.43
2018-06-30T00:37:58.615Z,64.43
2018-06-30T00:38:24.237Z,64.34
2018-06-30T00:38:49.802Z,64.34
2018-06-30T00:39:15.348Z,64.24
2018-06-30T00:39:40.921Z,64.31
2018-06-30T00:40:06.485Z,64.43
2018-06-30T00:40:32.057Z,64.53
2018-06-30T00:40:57.640Z,64.43
2018-06-30T00:41:23.213Z,64.14
2018-06-30T00:41:48.788Z,64.53
2018-06-30T00:42:14.361Z,64.53
2018-06-30T00:42:39.938Z,64.24
2018-06-30T00:43:05.518Z,64.34
2018-06-30T00:43:31.071Z,64.43
2018-06-30T00:43:56.637Z,64.34
2018-06-30T00:44:22.203Z,64.43
2018-06-30T00:44:47.769Z,64.43
2018-06-30T00:45:13.341Z,64.53
2018-06-30T00:45:38.916Z,64.34
2018-06-30T00:46:04.486Z,64.43
2018-06-30T00:46:30.067Z,64.62
2018-06-30T00:46:55.652Z,64.62
2018-06-30T00:47:21.235Z,64.62
2018-06-30T00:47:46.799Z,64.53
2018-06-30T00:48:12.365Z,64.53
2018-06-30T00:48:37.946Z,64.62
2018-06-30T00:49:03.485Z,64.43
2018-06-30T00:49:29.041Z,64.53
2018-06-30T00:49:54.623Z,64.53
2018-06-30T00:50:20.181Z,64.62
2018-06-30T00:50:45.744Z,64.43
2018-06-30T00:51:11.339Z,64.62
2018-06-30T00:51:36.910Z,64.43
2018-06-30T00:52:02.460Z,64.62
2018-06-30T00:52:28.029Z,64.53
2018-06-30T00:52:53.585Z,64.53
2018-06-30T00:53:19.154Z,64.53
2018-06-30T00:53:44.720Z,64.43
2018-06-30T00:54:10.300Z,64.53
2018-06-30T00:54:35.881Z,64.53
2018-06-30T00:55:01.458Z,64.53
2018-06-30T00:55:27.025Z,64.53
2018-06-30T00:55:52.591Z,64.53
2018-06-30T00:56:18.160Z,64.43
2018-06-30T00:56:43.737Z,64.53
2018-06-30T00:57:09.300Z,64.14
2018-06-30T00:57:34.868Z,64.24
2018-06-30T00:58:00.447Z,64.24
2018-06-30T00:58:25.996Z,64.24
2018-06-30T00:58:51.558Z,63.95
2018-06-30T00:59:17.117Z,64.14
2018-06-30T00:59:42.689Z,64.14
2018-06-30T01:00:08.301Z,64.14
2018-06-30T01:00:33.851Z,64.14
2018-06-30T01:00:59.411Z,64.24
2018-06-30T01:01:24.975Z,63.95
2018-06-30T01:01:50.540Z,64.43
2018-06-30T01:02:16.117Z,64.34
2018-06-30T01:02:41.683Z,63.85
2018-06-30T01:03:07.261Z,63.85
2018-06-30T01:03:32.867Z,63.95
2018-06-30T01:03:58.442Z,63.85
2018-06-30T01:04:24.053Z,64.04
2018-06-30T01:04:49.623Z,63.85
2018-06-30T01:05:15.200Z,63.85
2018-06-30T01:05:40.758Z,64.04
2018-06-30T01:06:06.340Z,63.85
2018-06-30T01:06:31.912Z,63.76
2018-06-30T01:06:57.475Z,64.14
2018-06-30T01:07:23.043Z,63.85
2018-06-30T01:07:48.635Z,63.95
2018-06-30T01:08:14.203Z,63.76
2018-06-30T01:08:39.796Z,63.85
2018-06-30T01:09:05.351Z,63.85
2018-06-30T01:09:30.913Z,63.85
2018-06-30T01:09:56.489Z,63.85
2018-06-30T01:10:22.053Z,63.95
2018-06-30T01:10:47.622Z,64.14
2018-06-30T01:11:13.169Z,63.76
2018-06-30T01:11:38.733Z,63.95
2018-06-30T01:12:04.295Z,64.04
2018-06-30T01:12:29.855Z,64.04
2018-06-30T01:12:55.409Z,64.04
2018-06-30T01:13:20.973Z,64.43
2018-06-30T01:13:46.551Z,64.04
2018-06-30T01:14:12.113Z,64.04
2018-06-30T01:14:37.690Z,63.95
2018-06-30T01:15:03.271Z,64.04
2018-06-30T01:15:28.833Z,64.34
2018-06-30T01:15:54.402Z,64.34
2018-06-30T01:16:19.960Z,64.14
2018-06-30T01:16:45.533Z,64.14
2018-06-30T01:17:11.118Z,64.14
2018-06-30T01:17:36.681Z,63.95
2018-06-30T01:18:02.257Z,64.14
2018-06-30T01:18:27.839Z,64.24
2018-06-30T01:18:53.410Z,63.95
2018-06-30T01:19:18.983Z,64.04
2018-06-30T01:19:44.532Z,64.43
2018-06-30T01:20:10.109Z,64.14
2018-06-30T01:20:35.669Z,63.95
2018-06-30T01:21:01.233Z,64.34
2018-06-30T01:21:26.830Z,64.24
2018-06-30T01:21:52.414Z,64.34
2018-06-30T01:22:17.978Z,64.04
2018-06-30T01:22:43.538Z,63.95
2018-06-30T01:23:09.116Z,63.85
2018-06-30T01:23:34.676Z,63.76
2018-06-30T01:24:00.247Z,63.85
2018-06-30T01:24:25.821Z,63.76
2018-06-30T01:24:51.382Z,63.85
2018-06-30T01:25:16.927Z,63.66
2018-06-30T01:25:42.491Z,63.85
2018-06-30T01:26:08.051Z,63.76
2018-06-30T01:26:33.625Z,63.66
2018-06-30T01:26:59.193Z,63.85
2018-06-30T01:27:24.783Z,63.66
2018-06-30T01:27:50.339Z,63.85
2018-06-30T01:28:15.918Z,63.95
2018-06-30T01:28:41.486Z,63.66
2018-06-30T01:29:07.065Z,63.95
2018-06-30T01:29:32.615Z,63.85
2018-06-30T01:29:58.209Z,63.76
2018-06-30T01:30:23.790Z,63.85
2018-06-30T01:30:49.372Z,64.14
2018-06-30T01:31:14.938Z,63.66
2018-06-30T01:31:40.515Z,63.85
2018-06-30T01:32:06.087Z,63.95
2018-06-30T01:32:31.653Z,63.85
2018-06-30T01:32:57.233Z,63.95
2018-06-30T01:33:22.799Z,63.85
2018-06-30T01:33:48.393Z,63.85
2018-06-30T01:34:13.969Z,63.76
2018-06-30T01:34:39.517Z,63.95
2018-06-30T01:35:05.061Z,63.66
2018-06-30T01:35:30.642Z,63.85
2018-06-30T01:35:56.217Z,63.85
2018-06-30T01:36:21.780Z,63.66
2018-06-30T01:36:47.360Z,63.95
2018-06-30T01:37:12.915Z,63.85
2018-06-30T01:37:38.467Z,64.04
2018-06-30T01:38:04.041Z,63.76
2018-06-30T01:38:29.612Z,64.14
2018-06-30T01:38:55.171Z,63.76
2018-06-30T01:39:20.753Z,63.85
2018-06-30T01:39:46.324Z,63.85
2018-06-30T01:40:11.903Z,63.85
2018-06-30T01:40:37.483Z,64.14
2018-06-30T01:41:03.053Z,64.14
2018-06-30T01:41:28.628Z,64.21
2018-06-30T01:41:54.209Z,64.24
2018-06-30T01:42:19.794Z,63.85
2018-06-30T01:42:45.361Z,64.24
2018-06-30T01:43:10.934Z,64.14
2018-06-30T01:43:36.504Z,63.95
2018-06-30T01:44:02.077Z,63.85
2018-06-30T01:44:27.637Z,63.85
2018-06-30T01:44:53.207Z,64.24
2018-06-30T01:45:18.777Z,63.95
2018-06-30T01:45:44.331Z,64.04
2018-06-30T01:46:09.898Z,64.14
2018-06-30T01:46:35.462Z,63.85
2018-06-30T01:47:01.041Z,63.76
2018-06-30T01:47:26.601Z,63.76
2018-06-30T01:47:52.180Z,63.66
2018-06-30T01:48:17.769Z,63.66
2018-06-30T01:48:43.343Z,63.85
2018-06-30T01:49:08.913Z,63.85
2018-06-30T01:49:34.487Z,63.85
2018-06-30T01:50:00.041Z,63.76
2018-06-30T01:50:25.606Z,63.95
2018-06-30T01:50:51.177Z,63.76
2018-06-30T01:51:16.752Z,63.85
2018-06-30T01:51:42.325Z,63.66
2018-06-30T01:52:07.895Z,63.66
2018-06-30T01:52:33.456Z,63.46
2018-06-30T01:52:59.025Z,63.66
2018-06-30T01:53:24.590Z,63.46
2018-06-30T01:53:50.150Z,63.46
2018-06-30T01:54:15.715Z,63.46
2018-06-30T01:54:41.293Z,63.66
2018-06-30T01:55:06.851Z,64.04
2018-06-30T01:55:32.417Z,63.66
2018-06-30T01:55:57.991Z,63.66
2018-06-30T01:56:23.554Z,63.85
2018-06-30T01:56:49.115Z,63.66
2018-06-30T01:57:14.682Z,64.04
2018-06-30T01:57:40.258Z,63.66
2018-06-30T01:58:05.835Z,63.66
2018-06-30T01:58:31.395Z,63.66
2018-06-30T01:58:56.974Z,63.46
2018-06-30T01:59:22.576Z,63.46
2018-06-30T01:59:48.143Z,63.63
2018-06-30T02:00:13.712Z,63.56
2018-06-30T02:00:39.281Z,63.66
2018-06-30T02:01:04.847Z,63.66
2018-06-30T02:01:30.407Z,63.66
2018-06-30T02:01:55.969Z,63.66
2018-06-30T02:02:21.535Z,63.66
2018-06-30T02:02:47.100Z,63.46
2018-06-30T02:03:12.679Z,63.66
2018-06-30T02:03:38.251Z,63.43
2018-06-30T02:04:03.822Z,63.95
2018-06-30T02:04:29.380Z,63.66
2018-06-30T02:04:54.939Z,63.66
2018-06-30T02:05:20.503Z,63.66
2018-06-30T02:05:46.088Z,63.46
2018-06-30T02:06:11.666Z,63.46
2018-06-30T02:06:37.235Z,63.56
2018-06-30T02:07:02.806Z,63.66
2018-06-30T02:07:28.372Z,63.56
2018-06-30T02:07:53.940Z,63.66
2018-06-30T02:08:19.525Z,63.66
2018-06-30T02:08:45.077Z,63.66
2018-06-30T02:09:10.656Z,63.56
2018-06-30T02:09:36.218Z,63.66
2018-06-30T02:10:01.792Z,63.53
2018-06-30T02:10:27.383Z,63.46
2018-06-30T02:10:52.964Z,63.66
2018-06-30T02:11:18.532Z,63.66
2018-06-30T02:11:44.134Z,63.66
2018-06-30T02:12:09.680Z,63.76
2018-06-30T02:12:35.237Z,63.85
2018-06-30T02:13:00.797Z,63.66
2018-06-30T02:13:26.366Z,63.76
2018-06-30T02:13:51.937Z,63.56
2018-06-30T02:14:17.523Z,63.76
2018-06-30T02:14:43.080Z,63.66
2018-06-30T02:15:08.639Z,63.66
2018-06-30T02:15:34.208Z,63.76
2018-06-30T02:15:59.770Z,63.66
2018-06-30T02:16:25.348Z,63.66
2018-06-30T02:16:50.906Z,63.85
2018-06-30T02:17:16.477Z,63.76
2018-06-30T02:17:42.052Z,63.85
2018-06-30T02:18:07.614Z,63.76
2018-06-30T02:18:33.180Z,63.76
2018-06-30T02:18:58.749Z,63.76
2018-06-30T02:19:24.320Z,63.85
2018-06-30T02:19:49.871Z,63.76
2018-06-30T02:20:15.442Z,63.76
2018-06-30T02:20:41.013Z,63.76
2018-06-30T02:21:06.562Z,63.85
2018-06-30T02:21:32.180Z,63.76
2018-06-30T02:21:57.707Z,63.76
2018-06-30T02:22:23.258Z,63.56
2018-06-30T02:22:48.804Z,63.76
2018-06-30T02:23:14.357Z,63.46
2018-06-30T02:23:39.931Z,63.46
2018-06-30T02:24:05.494Z,63.56
2018-06-30T02:24:31.059Z,63.82
2018-06-30T02:24:56.629Z,63.66
2018-06-30T02:25:22.200Z,63.46
2018-06-30T02:25:47.769Z,63.46
2018-06-30T02:26:13.334Z,63.56
2018-06-30T02:26:38.915Z,63.37
2018-06-30T02:27:04.504Z,63.56
2018-06-30T02:27:30.053Z,63.63
2018-06-30T02:27:55.617Z,63.66
2018-06-30T02:28:21.195Z,63.56
2018-06-30T02:28:46.753Z,63.66
2018-06-30T02:29:12.330Z,63.66
2018-06-30T02:29:37.902Z,63.85
2018-06-30T02:30:03.475Z,63.76
2018-06-30T02:30:29.042Z,63.66
2018-06-30T02:30:54.621Z,63.76
2018-06-30T02:31:20.191Z,63.66
2018-06-30T02:31:45.755Z,63.56
2018-06-30T02:32:11.331Z,63.76
2018-06-30T02:32:36.916Z,63.56
2018-06-30T02:33:02.485Z,63.85
2018-06-30T02:33:28.052Z,63.66
2018-06-30T02:33:53.621Z,63.56
2018-06-30T02:34:19.187Z,63.85
2018-06-30T02:34:44.771Z,63.76
2018-06-30T02:35:10.365Z,63.56
2018-06-30T02:35:35.939Z,63.95
2018-06-30T02:36:01.517Z,63.95
2018-06-30T02:36:27.063Z,63.66
2018-06-30T02:36:52.656Z,63.56
2018-06-30T02:37:18.197Z,63.76
2018-06-30T02:37:43.764Z,63.56
2018-06-30T02:38:09.334Z,63.95
2018-06-30T02:38:34.918Z,63.95
2018-06-30T02:39:00.495Z,63.85
2018-06-30T02:39:26.033Z,63.85
2018-06-30T02:39:51.601Z,63.85
2018-06-30T02:40:17.157Z,63.76
2018-06-30T02:40:42.717Z,63.95
2018-06-30T02:41:08.296Z,63.76
2018-06-30T02:41:33.858Z,63.76
2018-06-30T02:41:59.430Z,63.27
2018-06-30T02:42:24.997Z,63.08
2018-06-30T02:42:50.548Z,63.37
2018-06-30T02:43:16.127Z,63.76
2018-06-30T02:43:41.707Z,63.85
2018-06-30T02:44:07.296Z,63.95
2018-06-30T02:44:32.867Z,63.95
2018-06-30T02:44:58.436Z,63.85
2018-06-30T02:45:23.981Z,63.76
2018-06-30T02:45:49.581Z,63.18
2018-06-30T02:46:15.095Z,63.37
2018-06-30T02:46:40.651Z,63.76
2018-06-30T02:47:06.223Z,63.76
2018-06-30T02:47:31.781Z,63.85
2018-06-30T02:47:57.351Z,63.37
2018-06-30T02:48:22.907Z,63.37
2018-06-30T02:48:48.485Z,63.27
2018-06-30T02:49:14.062Z,63.27
2018-06-30T02:49:39.623Z,63.56
2018-06-30T02:50:05.220Z,63.08
2018-06-30T02:50:30.788Z,63.37
2018-06-30T02:50:56.354Z,63.27
2018-06-30T02:51:21.929Z,63.27
2018-06-30T02:51:47.507Z,63.37
2018-06-30T02:52:13.078Z,63.46
2018-06-30T02:52:38.644Z,63.46
2018-06-30T02:53:04.200Z,63.46
2018-06-30T02:53:29.770Z,63.37
2018-06-30T02:53:55.332Z,63.46
2018-06-30T02:54:20.889Z,63.37
2018-06-30T02:54:46.483Z,63.46
2018-06-30T02:55:12.059Z,63.37
2018-06-30T02:55:37.609Z,63.37
2018-06-30T02:56:03.179Z,63.27
2018-06-30T02:56:28.724Z,63.46
2018-06-30T02:56:54.304Z,63.46
2018-06-30T02:57:19.903Z,63.37
2018-06-30T02:57:45.471Z,63.37
2018-06-30T02:58:11.040Z,63.27
2018-06-30T02:58:36.612Z,63.56
2018-06-30T02:59:02.189Z,63.56
2018-06-30T02:59:27.747Z,63.46
2018-06-30T02:59:53.318Z,63.46
2018-06-30T03:00:18.903Z,63.46
2018-06-30T03:00:44.464Z,63.56
2018-06-30T03:01:10.025Z,63.46
2018-06-30T03:01:35.610Z,63.46
2018-06-30T03:02:01.183Z,63.46
2018-06-30T03:02:26.760Z,63.56
2018-06-30T03:02:52.328Z,63.46
2018-06-30T03:03:17.895Z,63.56
2018-06-30T03:03:43.481Z,63.37
2018-06-30T03:04:09.047Z,63.08
2018-06-30T03:04:34.629Z,63.46
2018-06-30T03:05:00.224Z,63.46
2018-06-30T03:05:25.792Z,63.46
2018-06-30T03:05:51.350Z,63.27
2018-06-30T03:06:16.930Z,63.27
2018-06-30T03:06:42.481Z,63.37
2018-06-30T03:07:08.080Z,63.08
2018-06-30T03:07:33.654Z,63.08
2018-06-30T03:07:59.257Z,63.66
2018-06-30T03:08:24.800Z,63.66
2018-06-30T03:08:50.364Z,63.27
2018-06-30T03:09:15.923Z,63.08
2018-06-30T03:09:41.492Z,63.37
2018-06-30T03:10:07.065Z,63.08
2018-06-30T03:10:32.619Z,63.27
2018-06-30T03:10:58.182Z,63.27
2018-06-30T03:11:23.749Z,63.37
2018-06-30T03:11:49.300Z,63.27
2018-06-30T03:12:14.850Z,63.37
2018-06-30T03:12:40.409Z,63.66
2018-06-30T03:13:05.980Z,63.27
2018-06-30T03:13:31.546Z,63.27
2018-06-30T03:13:57.089Z,63.27
2018-06-30T03:14:22.653Z,63.14
2018-06-30T03:14:48.218Z,63.27
2018-06-30T03:15:13.777Z,63.27
2018-06-30T03:15:39.362Z,63.37
2018-06-30T03:16:05.009Z,63.18
2018-06-30T03:16:30.512Z,63.18
2018-06-30T03:16:56.078Z,63.18
2018-06-30T03:17:21.646Z,63.46
2018-06-30T03:17:47.196Z,63.27
2018-06-30T03:18:12.759Z,63.18
2018-06-30T03:18:38.352Z,63.18
2018-06-30T03:19:03.900Z,63.14
2018-06-30T03:19:29.478Z,63.56
2018-06-30T03:19:55.060Z,63.37
2018-06-30T03:20:20.643Z,63.37
2018-06-30T03:20:46.200Z,63.27
2018-06-30T03:21:11.784Z,63.37
2018-06-30T03:21:37.366Z,63.27
2018-06-30T03:22:02.976Z,63.27
2018-06-30T03:22:28.545Z,63.27
2018-06-30T03:22:54.112Z,63.37
2018-06-30T03:23:19.702Z,63.37
2018-06-30T03:23:45.276Z,63.27
2018-06-30T03:24:10.848Z,63.37
2018-06-30T03:24:36.407Z,63.27
2018-06-30T03:25:01.993Z,63.34
2018-06-30T03:25:27.564Z,63.18
2018-06-30T03:25:53.167Z,63.18
2018-06-30T03:26:18.754Z,63.27
2018-06-30T03:26:44.314Z,63.27
2018-06-30T03:27:09.900Z,63.27
2018-06-30T03:27:35.476Z,63.37
2018-06-30T03:28:01.054Z,63.37
2018-06-30T03:28:26.614Z,63.46
2018-06-30T03:28:52.182Z,63.08
2018-06-30T03:29:17.742Z,63.27
2018-06-30T03:29:43.301Z,63.27
2018-06-30T03:30:08.868Z,63.37
2018-06-30T03:30:34.437Z,63.27
2018-06-30T03:31:00.024Z,63.37
2018-06-30T03:31:25.668Z,63.46
2018-06-30T03:31:51.187Z,63.37
2018-06-30T03:32:16.736Z,63.37
2018-06-30T03:32:42.300Z,63.37
2018-06-30T03:33:07.869Z,63.27
2018-06-30T03:33:33.444Z,63.18
2018-06-30T03:33:59.004Z,63.27
2018-06-30T03:34:24.568Z,63.66
2018-06-30T03:34:50.140Z,63.46
2018-06-30T03:35:15.719Z,63.56
2018-06-30T03:35:41.285Z,63.66
2018-06-30T03:36:06.853Z,63.66
2018-06-30T03:36:32.443Z,63.66
2018-06-30T03:36:58.017Z,63.66
2018-06-30T03:37:23.578Z,63.08
2018-06-30T03:37:49.138Z,62.88
2018-06-30T03:38:14.717Z,63.56
2018-06-30T03:38:40.410Z,63.37
2018-06-30T03:39:05.868Z,63.56
2018-06-30T03:39:31.435Z,63.18
2018-06-30T03:39:56.996Z,62.98
2018-06-30T03:40:22.553Z,62.98
2018-06-30T03:40:48.117Z,63.56
2018-06-30T03:41:13.672Z,62.98
2018-06-30T03:41:39.255Z,63.08
2018-06-30T03:42:04.821Z,63.08
2018-06-30T03:42:30.397Z,63.18
2018-06-30T03:42:55.959Z,62.98
2018-06-30T03:43:21.554Z,63.18
2018-06-30T03:43:47.104Z,62.98
2018-06-30T03:44:12.672Z,62.79
2018-06-30T03:44:38.240Z,62.98
2018-06-30T03:45:03.820Z,62.88
2018-06-30T03:45:29.402Z,62.79
2018-06-30T03:45:54.994Z,62.79
2018-06-30T03:46:20.571Z,62.98
2018-06-30T03:46:46.118Z,62.98
2018-06-30T03:47:11.671Z,62.79
2018-06-30T03:47:37.315Z,62.79
2018-06-30T03:48:02.871Z,62.88
2018-06-30T03:48:28.453Z,62.88
2018-06-30T03:48:54.032Z,62.69
2018-06-30T03:49:19.600Z,62.79
2018-06-30T03:49:45.154Z,62.79
2018-06-30T03:50:10.722Z,62.79
2018-06-30T03:50:36.282Z,62.88
2018-06-30T03:51:01.856Z,62.98
2018-06-30T03:51:27.434Z,62.69
2018-06-30T03:51:53.033Z,62.56
2018-06-30T03:52:18.629Z,62.79
2018-06-30T03:52:44.181Z,62.88
2018-06-30T03:53:09.779Z,62.69
2018-06-30T03:53:35.344Z,62.88
2018-06-30T03:54:00.910Z,62.79
2018-06-30T03:54:26.464Z,62.88
2018-06-30T03:54:52.052Z,62.79
2018-06-30T03:55:17.648Z,62.59
2018-06-30T03:55:43.234Z,62.79
2018-06-30T03:56:08.852Z,62.79
2018-06-30T03:56:34.414Z,63.08
2018-06-30T03:56:59.982Z,62.79
2018-06-30T03:57:25.578Z,62.59
2018-06-30T03:57:51.180Z,62.98
2018-06-30T03:58:16.757Z,62.98
2018-06-30T03:58:42.338Z,62.98
2018-06-30T03:59:07.898Z,62.59
2018-06-30T03:59:33.448Z,62.59
2018-06-30T03:59:59.006Z,62.69
2018-06-30T04:00:24.572Z,62.59
2018-06-30T04:00:50.146Z,62.59
2018-06-30T04:01:15.719Z,62.5
2018-06-30T04:01:41.290Z,62.69
2018-06-30T04:02:06.878Z,62.98
2018-06-30T04:02:32.464Z,62.59
2018-06-30T04:02:58.047Z,62.5
2018-06-30T04:03:23.591Z,62.69
2018-06-30T04:03:49.172Z,62.79
2018-06-30T04:04:14.722Z,62.69
2018-06-30T04:04:40.312Z,62.98
2018-06-30T04:05:05.874Z,62.59
2018-06-30T04:05:31.467Z,62.59
2018-06-30T04:05:57.038Z,62.69
2018-06-30T04:06:22.587Z,62.59
2018-06-30T04:06:48.165Z,62.79
2018-06-30T04:07:13.766Z,62.79
2018-06-30T04:07:39.338Z,62.79
2018-06-30T04:08:04.912Z,62.98
2018-06-30T04:08:30.458Z,62.79
2018-06-30T04:08:56.028Z,62.88
2018-06-30T04:09:21.608Z,62.79
2018-06-30T04:09:47.156Z,62.69
2018-06-30T04:10:12.736Z,62.69
2018-06-30T04:10:38.286Z,62.88
2018-06-30T04:11:03.832Z,62.69
2018-06-30T04:11:29.432Z,62.59
2018-06-30T04:11:55.014Z,62.69
2018-06-30T04:12:20.564Z,62.98
2018-06-30T04:12:46.147Z,62.98
2018-06-30T04:13:11.728Z,62.98
2018-06-30T04:13:37.296Z,62.79
2018-06-30T04:14:02.850Z,62.79
2018-06-30T04:14:28.434Z,62.79
2018-06-30T04:14:53.989Z,62.69
2018-06-30T04:15:19.547Z,62.69
2018-06-30T04:15:45.124Z,62.98
2018-06-30T04:16:10.671Z,62.79
2018-06-30T04:16:36.256Z,62.88
2018-06-30T04:17:01.832Z,62.98
2018-06-30T04:17:27.382Z,62.88
2018-06-30T04:17:52.958Z,63.08
2018-06-30T04:18:18.534Z,62.88
2018-06-30T04:18:44.128Z,62.88
2018-06-30T04:19:09.684Z,62.98
2018-06-30T04:19:35.247Z,62.98
2018-06-30T04:20:00.818Z,62.88
2018-06-30T04:20:26.388Z,62.88
2018-06-30T04:20:51.947Z,62.69
2018-06-30T04:21:17.520Z,62.79
2018-06-30T04:21:43.116Z,63.08
2018-06-30T04:22:08.746Z,62.98
2018-06-30T04:22:34.228Z,63.08
2018-06-30T04:22:59.776Z,63.08
2018-06-30T04:23:25.343Z,62.79
2018-06-30T04:23:50.903Z,63.08
2018-06-30T04:24:16.469Z,62.88
2018-06-30T04:24:42.034Z,62.69
2018-06-30T04:25:07.613Z,62.59
2018-06-30T04:25:33.244Z,62.69
2018-06-30T04:25:58.741Z,62.59
2018-06-30T04:26:24.315Z,62.59
2018-06-30T04:26:49.882Z,62.69
2018-06-30T04:27:15.477Z,62.69
2018-06-30T04:27:41.061Z,63.08
2018-06-30T04:28:06.636Z,62.69
2018-06-30T04:28:32.205Z,62.98
2018-06-30T04:28:57.793Z,62.69
2018-06-30T04:29:23.358Z,62.59
2018-06-30T04:29:48.938Z,62.69
2018-06-30T04:30:14.570Z,62.59
2018-06-30T04:30:40.120Z,62.59
2018-06-30T04:31:05.686Z,62.69
2018-06-30T04:31:31.245Z,62.59
2018-06-30T04:31:56.810Z,62.59
2018-06-30T04:32:22.376Z,62.59
2018-06-30T04:32:47.964Z,62.69
2018-06-30T04:33:13.545Z,62.69
2018-06-30T04:33:39.115Z,62.88
2018-06-30T04:34:04.693Z,62.59
2018-06-30T04:34:30.253Z,62.79
2018-06-30T04:34:55.827Z,62.88
2018-06-30T04:35:21.388Z,62.88
2018-06-30T04:35:46.979Z,62.59
2018-06-30T04:36:12.540Z,62.88
2018-06-30T04:36:38.134Z,62.59
2018-06-30T04:37:03.699Z,62.88
2018-06-30T04:37:29.273Z,62.88
2018-06-30T04:37:54.837Z,62.69
2018-06-30T04:38:20.407Z,62.69
2018-06-30T04:38:45.985Z,62.69
2018-06-30T04:39:11.540Z,62.69
2018-06-30T04:39:37.111Z,62.79
2018-06-30T04:40:02.697Z,62.69
2018-06-30T04:40:28.271Z,62.79
2018-06-30T04:40:53.853Z,62.79
2018-06-30T04:41:19.401Z,62.69
2018-06-30T04:41:44.960Z,62.69
2018-06-30T04:42:10.524Z,62.69
2018-06-30T04:42:36.084Z,62.88
2018-06-30T04:43:01.666Z,62.79
2018-06-30T04:43:27.234Z,62.79
2018-06-30T04:43:52.801Z,62.88
2018-06-30T04:44:18.377Z,62.79
2018-06-30T04:44:43.937Z,62.79
2018-06-30T04:45:09.506Z,62.88
2018-06-30T04:45:35.079Z,62.88
2018-06-30T04:46:00.641Z,62.79
2018-06-30T04:46:26.224Z,62.79
2018-06-30T04:46:51.793Z,62.69
2018-06-30T04:47:17.370Z,62.3
2018-06-30T04:47:42.932Z,62.88
2018-06-30T04:48:08.512Z,62.88
2018-06-30T04:48:34.093Z,62.69
2018-06-30T04:48:59.665Z,62.69
2018-06-30T04:49:25.324Z,62.3
2018-06-30T04:49:50.888Z,62.4
2018-06-30T04:50:16.459Z,62.3
2018-06-30T04:50:42.058Z,62.4
2018-06-30T04:51:07.695Z,62.59
2018-06-30T04:51:33.209Z,62.59
2018-06-30T04:51:58.791Z,62.3
2018-06-30T04:52:24.350Z,62.69
2018-06-30T04:52:49.910Z,62.69
2018-06-30T04:53:15.488Z,62.3
2018-06-30T04:53:41.041Z,62.3
2018-06-30T04:54:06.606Z,62.3
2018-06-30T04:54:32.171Z,62.11
2018-06-30T04:54:57.733Z,62.11
2018-06-30T04:55:23.304Z,62.01
2018-06-30T04:55:48.896Z,62.01
2018-06-30T04:56:14.451Z,62.11
2018-06-30T04:56:40.021Z,62.11
2018-06-30T04:57:05.591Z,62.21
2018-06-30T04:57:31.169Z,62.21
2018-06-30T04:57:56.711Z,62.11
2018-06-30T04:58:22.281Z,61.82
2018-06-30T04:58:47.917Z,62.21
2018-06-30T04:59:13.475Z,62.21
2018-06-30T04:59:39.036Z,61.92
2018-06-30T05:00:04.619Z,61.98
2018-06-30T05:00:30.187Z,62.21
2018-06-30T05:00:55.752Z,62.11
2018-06-30T05:01:21.310Z,62.11
2018-06-30T05:01:46.879Z,61.82
2018-06-30T05:02:12.441Z,62.11
2018-06-30T05:02:38.012Z,62.11
2018-06-30T05:03:03.578Z,62.4
2018-06-30T05:03:29.165Z,62.01
2018-06-30T05:03:54.726Z,62.3
2018-06-30T05:04:20.309Z,62.3
2018-06-30T05:04:45.862Z,61.82
2018-06-30T05:05:11.437Z,62.3
2018-06-30T05:05:36.999Z,62.01
2018-06-30T05:06:02.551Z,62.01
2018-06-30T05:06:28.132Z,62.5
2018-06-30T05:06:53.730Z,62.01
2018-06-30T05:07:19.241Z,62.01
2018-06-30T05:07:44.812Z,61.92
2018-06-30T05:08:10.371Z,62.01
2018-06-30T05:08:35.928Z,62.01
2018-06-30T05:09:01.489Z,61.72
2018-06-30T05:09:27.071Z,61.72
2018-06-30T05:09:52.618Z,61.82
2018-06-30T05:10:18.207Z,62.01
2018-06-30T05:10:43.772Z,61.72
2018-06-30T05:11:09.333Z,61.82
2018-06-30T05:11:34.915Z,61.82
2018-06-30T05:12:00.494Z,62.11
2018-06-30T05:12:26.079Z,62.11
2018-06-30T05:12:51.648Z,62.01
2018-06-30T05:13:17.235Z,62.11
2018-06-30T05:13:42.799Z,62.11
2018-06-30T05:14:08.423Z,61.92
2018-06-30T05:14:33.964Z,61.82
2018-06-30T05:14:59.547Z,61.82
2018-06-30T05:15:25.113Z,61.82
2018-06-30T05:15:50.665Z,61.82
2018-06-30T05:16:16.236Z,62.11
2018-06-30T05:16:41.799Z,61.92
2018-06-30T05:17:07.361Z,61.63
2018-06-30T05:17:32.923Z,62.01
2018-06-30T05:17:58.509Z,62.11
2018-06-30T05:18:24.089Z,62.11
2018-06-30T05:18:49.667Z,61.92
2018-06-30T05:19:15.239Z,62.01
2018-06-30T05:19:40.857Z,61.92
2018-06-30T05:20:06.441Z,61.92
2018-06-30T05:20:32.027Z,62.01
2018-06-30T05:20:57.608Z,61.92
2018-06-30T05:21:23.198Z,62.11
2018-06-30T05:21:48.751Z,62.3
2018-06-30T05:22:14.306Z,61.92
2018-06-30T05:22:39.867Z,62.4
2018-06-30T05:23:05.420Z,62.11
2018-06-30T05:23:31.007Z,61.92
2018-06-30T05:23:56.575Z,62.11
2018-06-30T05:24:22.155Z,62.11
2018-06-30T05:24:47.731Z,62.11
2018-06-30T05:25:13.280Z,62.3
2018-06-30T05:25:38.851Z,62.3
2018-06-30T05:26:04.429Z,62.11
2018-06-30T05:26:30.000Z,62.11
2018-06-30T05:26:55.569Z,62.11
2018-06-30T05:27:21.142Z,62.11
2018-06-30T05:27:46.721Z,62.01
2018-06-30T05:28:12.300Z,62.11
2018-06-30T05:28:37.877Z,62.11
2018-06-30T05:29:03.490Z,62.11
2018-06-30T05:29:29.059Z,62.01
2018-06-30T05:29:54.621Z,62.11
2018-06-30T05:30:20.188Z,61.82
2018-06-30T05:30:45.769Z,61.82
2018-06-30T05:31:11.349Z,61.92